sensor_id;sensor_type;location;lat;lon;timestamp;P1;durP1;ratioP1;P2;durP2;ratioP2
6215;SDS011;3141;49.234;9.326;2023-12-29T00:00:09;1.73;;;1.30;;
6215;SDS011;3141;49.234;9.326;2023-12-29T00:00:51;1.70;;;1.30;;
6215;SDS011;3141;49.234;9.326;2023-12-29T00:01:34;2.20;;;1.30;;
6215;SDS011;3141;49.234;9.326;2023-12-29T00:02:16;4.10;;;1.27;;
6215;SDS011;3141;49.234;9.326;2023-12-29T00:02:59;1.43;;;1.33;;
6215;SDS011;3141;49.234;9.326;2023-12-29T00:03:41;1.77;;;1.67;;
6215;SDS011;3141;49.234;9.326;2023-12-29T00:04:26;2.28;;;1.60;;
6215;SDS011;3141;49.234;9.326;2023-12-29T00:05:08;1.50;;;1.40;;
6215;SDS011;3141;49.234;9.326;2023-12-29T00:05:50;1.10;;;1.10;;
6215;SDS011;3141;49.234;9.326;2023-12-29T00:06:33;1.37;;;1.27;;
6215;SDS011;3141;49.234;9.326;2023-12-29T00:07:15;1.67;;;1.10;;
6215;SDS011;3141;49.234;9.326;2023-12-29T00:07:57;1.47;;;1.37;;
6215;SDS011;3141;49.234;9.326;2023-12-29T00:08:40;1.30;;;1.20;;
6215;SDS011;3141;49.234;9.326;2023-12-29T00:09:22;1.57;;;1.47;;
6215;SDS011;3141;49.234;9.326;2023-12-29T00:10:05;2.17;;;1.57;;
6215;SDS011;3141;49.234;9.326;2023-12-29T00:10:48;2.20;;;1.50;;
6215;SDS011;3141;49.234;9.326;2023-12-29T00:11:30;1.20;;;1.20;;
6215;SDS011;3141;49.234;9.326;2023-12-29T00:12:12;1.20;;;1.20;;
6215;SDS011;3141;49.234;9.326;2023-12-29T00:12:55;1.63;;;1.50;;
6215;SDS011;3141;49.234;9.326;2023-12-29T00:13:37;1.33;;;1.33;;
6215;SDS011;3141;49.234;9.326;2023-12-29T00:14:19;1.53;;;1.37;;
6215;SDS011;3141;49.234;9.326;2023-12-29T00:15:02;2.30;;;1.60;;
6215;SDS011;3141;49.234;9.326;2023-12-29T00:15:45;1.60;;;1.50;;
6215;SDS011;3141;49.234;9.326;2023-12-29T00:16:28;1.58;;;1.38;;
6215;SDS011;3141;49.234;9.326;2023-12-29T00:17:11;2.43;;;1.43;;
6215;SDS011;3141;49.234;9.326;2023-12-29T00:17:53;2.00;;;1.20;;
6215;SDS011;3141;49.234;9.326;2023-12-29T00:18:38;1.40;;;1.30;;
6215;SDS011;3141;49.234;9.326;2023-12-29T00:19:21;1.35;;;1.33;;
6215;SDS011;3141;49.234;9.326;2023-12-29T00:20:03;1.47;;;1.37;;
6215;SDS011;3141;49.234;9.326;2023-12-29T00:20:47;1.70;;;1.60;;
6215;SDS011;3141;49.234;9.326;2023-12-29T00:21:30;1.80;;;1.65;;
6215;SDS011;3141;49.234;9.326;2023-12-29T00:22:12;1.77;;;1.60;;
6215;SDS011;3141;49.234;9.326;2023-12-29T00:22:54;1.63;;;1.53;;
6215;SDS011;3141;49.234;9.326;2023-12-29T00:23:40;2.63;;;1.70;;
6215;SDS011;3141;49.234;9.326;2023-12-29T00:24:22;1.57;;;1.47;;
6215;SDS011;3141;49.234;9.326;2023-12-29T00:25:04;1.60;;;1.50;;
6215;SDS011;3141;49.234;9.326;2023-12-29T00:25:47;2.00;;;1.57;;
6215;SDS011;3141;49.234;9.326;2023-12-29T00:26:29;2.27;;;2.07;;
6215;SDS011;3141;49.234;9.326;2023-12-29T00:27:13;1.63;;;1.53;;
6215;SDS011;3141;49.234;9.326;2023-12-29T00:27:55;2.00;;;1.40;;
6215;SDS011;3141;49.234;9.326;2023-12-29T00:28:38;2.30;;;1.53;;
6215;SDS011;3141;49.234;9.326;2023-12-29T00:29:22;3.55;;;2.08;;
6215;SDS011;3141;49.234;9.326;2023-12-29T00:30:05;1.70;;;1.60;;
6215;SDS011;3141;49.234;9.326;2023-12-29T00:30:47;2.13;;;1.90;;
6215;SDS011;3141;49.234;9.326;2023-12-29T00:31:30;1.80;;;1.70;;
6215;SDS011;3141;49.234;9.326;2023-12-29T00:32:12;3.77;;;1.90;;
6215;SDS011;3141;49.234;9.326;2023-12-29T00:32:55;3.43;;;2.13;;
6215;SDS011;3141;49.234;9.326;2023-12-29T00:33:37;2.27;;;2.07;;
6215;SDS011;3141;49.234;9.326;2023-12-29T00:34:20;2.17;;;1.57;;
6215;SDS011;3141;49.234;9.326;2023-12-29T00:35:02;1.97;;;1.53;;
6215;SDS011;3141;49.234;9.326;2023-12-29T00:35:45;1.63;;;1.37;;
6215;SDS011;3141;49.234;9.326;2023-12-29T00:36:27;1.63;;;1.53;;
6215;SDS011;3141;49.234;9.326;2023-12-29T00:37:09;2.57;;;1.60;;
6215;SDS011;3141;49.234;9.326;2023-12-29T00:37:52;2.30;;;2.00;;
6215;SDS011;3141;49.234;9.326;2023-12-29T00:38:34;1.97;;;1.80;;
6215;SDS011;3141;49.234;9.326;2023-12-29T00:39:16;2.00;;;1.80;;
6215;SDS011;3141;49.234;9.326;2023-12-29T00:39:59;1.40;;;1.30;;
6215;SDS011;3141;49.234;9.326;2023-12-29T00:40:41;2.63;;;1.77;;
6215;SDS011;3141;49.234;9.326;2023-12-29T00:41:23;2.03;;;1.80;;
6215;SDS011;3141;49.234;9.326;2023-12-29T00:42:06;3.27;;;1.80;;
6215;SDS011;3141;49.234;9.326;2023-12-29T00:42:49;1.77;;;1.60;;
6215;SDS011;3141;49.234;9.326;2023-12-29T00:43:31;2.20;;;2.00;;
6215;SDS011;3141;49.234;9.326;2023-12-29T00:44:13;1.87;;;1.77;;
6215;SDS011;3141;49.234;9.326;2023-12-29T00:44:56;2.17;;;1.90;;
6215;SDS011;3141;49.234;9.326;2023-12-29T00:45:38;1.57;;;1.47;;
6215;SDS011;3141;49.234;9.326;2023-12-29T00:46:20;3.00;;;2.23;;
6215;SDS011;3141;49.234;9.326;2023-12-29T00:47:03;1.93;;;1.83;;
6215;SDS011;3141;49.234;9.326;2023-12-29T00:47:45;1.87;;;1.77;;
6215;SDS011;3141;49.234;9.326;2023-12-29T00:48:28;2.33;;;2.00;;
6215;SDS011;3141;49.234;9.326;2023-12-29T00:49:10;2.20;;;2.00;;
6215;SDS011;3141;49.234;9.326;2023-12-29T00:49:52;1.80;;;1.70;;
6215;SDS011;3141;49.234;9.326;2023-12-29T00:50:35;1.73;;;1.63;;
6215;SDS011;3141;49.234;9.326;2023-12-29T00:51:17;1.93;;;1.73;;
6215;SDS011;3141;49.234;9.326;2023-12-29T00:51:59;1.57;;;1.43;;
6215;SDS011;3141;49.234;9.326;2023-12-29T00:52:42;2.27;;;2.00;;
6215;SDS011;3141;49.234;9.326;2023-12-29T00:53:24;2.00;;;1.77;;
6215;SDS011;3141;49.234;9.326;2023-12-29T00:54:07;2.93;;;1.67;;
6215;SDS011;3141;49.234;9.326;2023-12-29T00:54:49;1.67;;;1.57;;
6215;SDS011;3141;49.234;9.326;2023-12-29T00:55:31;1.97;;;1.70;;
6215;SDS011;3141;49.234;9.326;2023-12-29T00:56:14;4.77;;;1.60;;
6215;SDS011;3141;49.234;9.326;2023-12-29T00:56:56;1.67;;;1.57;;
6215;SDS011;3141;49.234;9.326;2023-12-29T00:57:38;3.03;;;1.50;;
6215;SDS011;3141;49.234;9.326;2023-12-29T00:58:21;4.13;;;1.77;;
6215;SDS011;3141;49.234;9.326;2023-12-29T00:59:03;2.53;;;1.67;;
6215;SDS011;3141;49.234;9.326;2023-12-29T00:59:46;1.80;;;1.60;;
6215;SDS011;3141;49.234;9.326;2023-12-29T01:00:29;3.13;;;1.70;;
6215;SDS011;3141;49.234;9.326;2023-12-29T01:01:11;1.43;;;1.33;;
6215;SDS011;3141;49.234;9.326;2023-12-29T01:01:53;1.50;;;1.40;;
6215;SDS011;3141;49.234;9.326;2023-12-29T01:02:36;2.40;;;1.60;;
6215;SDS011;3141;49.234;9.326;2023-12-29T01:03:18;1.90;;;1.53;;
6215;SDS011;3141;49.234;9.326;2023-12-29T01:04:02;1.35;;;1.30;;
6215;SDS011;3141;49.234;9.326;2023-12-29T01:04:44;1.57;;;1.40;;
6215;SDS011;3141;49.234;9.326;2023-12-29T01:05:27;1.73;;;1.63;;
6215;SDS011;3141;49.234;9.326;2023-12-29T01:06:09;1.33;;;1.33;;
6215;SDS011;3141;49.234;9.326;2023-12-29T01:06:52;1.17;;;1.17;;
6215;SDS011;3141;49.234;9.326;2023-12-29T01:07:36;2.20;;;2.00;;
6215;SDS011;3141;49.234;9.326;2023-12-29T01:08:18;1.83;;;1.60;;
6215;SDS011;3141;49.234;9.326;2023-12-29T01:09:00;1.93;;;1.70;;
6215;SDS011;3141;49.234;9.326;2023-12-29T01:09:42;1.60;;;1.50;;
6215;SDS011;3141;49.234;9.326;2023-12-29T01:10:25;1.50;;;1.40;;
6215;SDS011;3141;49.234;9.326;2023-12-29T01:11:07;1.60;;;1.50;;
6215;SDS011;3141;49.234;9.326;2023-12-29T01:11:49;3.37;;;1.83;;
6215;SDS011;3141;49.234;9.326;2023-12-29T01:12:32;2.47;;;1.80;;
6215;SDS011;3141;49.234;9.326;2023-12-29T01:13:14;2.40;;;1.93;;
6215;SDS011;3141;49.234;9.326;2023-12-29T01:13:56;1.80;;;1.70;;
6215;SDS011;3141;49.234;9.326;2023-12-29T01:14:39;2.37;;;1.77;;
6215;SDS011;3141;49.234;9.326;2023-12-29T01:15:21;2.20;;;1.70;;
6215;SDS011;3141;49.234;9.326;2023-12-29T01:16:03;1.67;;;1.57;;
6215;SDS011;3141;49.234;9.326;2023-12-29T01:16:46;4.23;;;1.73;;
6215;SDS011;3141;49.234;9.326;2023-12-29T01:17:28;1.70;;;1.60;;
6215;SDS011;3141;49.234;9.326;2023-12-29T01:18:11;2.10;;;1.90;;
6215;SDS011;3141;49.234;9.326;2023-12-29T01:18:53;1.80;;;1.70;;
6215;SDS011;3141;49.234;9.326;2023-12-29T01:19:36;1.70;;;1.60;;
6215;SDS011;3141;49.234;9.326;2023-12-29T01:20:18;1.93;;;1.73;;
6215;SDS011;3141;49.234;9.326;2023-12-29T01:21:00;1.80;;;1.70;;
6215;SDS011;3141;49.234;9.326;2023-12-29T01:21:42;2.43;;;1.60;;
6215;SDS011;3141;49.234;9.326;2023-12-29T01:22:25;1.60;;;1.50;;
6215;SDS011;3141;49.234;9.326;2023-12-29T01:23:08;1.67;;;1.57;;
6215;SDS011;3141;49.234;9.326;2023-12-29T01:23:50;2.07;;;1.90;;
6215;SDS011;3141;49.234;9.326;2023-12-29T01:24:32;1.90;;;1.80;;
6215;SDS011;3141;49.234;9.326;2023-12-29T01:25:14;1.67;;;1.57;;
6215;SDS011;3141;49.234;9.326;2023-12-29T01:25:57;2.23;;;2.07;;
6215;SDS011;3141;49.234;9.326;2023-12-29T01:26:40;2.83;;;2.05;;
6215;SDS011;3141;49.234;9.326;2023-12-29T01:27:22;3.37;;;2.17;;
6215;SDS011;3141;49.234;9.326;2023-12-29T01:28:05;1.83;;;1.73;;
6215;SDS011;3141;49.234;9.326;2023-12-29T01:28:47;2.17;;;1.97;;
6215;SDS011;3141;49.234;9.326;2023-12-29T01:29:29;4.60;;;2.30;;
6215;SDS011;3141;49.234;9.326;2023-12-29T01:30:12;2.60;;;2.33;;
6215;SDS011;3141;49.234;9.326;2023-12-29T01:30:54;3.27;;;2.37;;
6215;SDS011;3141;49.234;9.326;2023-12-29T01:31:36;2.43;;;2.23;;
6215;SDS011;3141;49.234;9.326;2023-12-29T01:32:19;2.20;;;2.00;;
6215;SDS011;3141;49.234;9.326;2023-12-29T01:33:01;3.20;;;2.40;;
6215;SDS011;3141;49.234;9.326;2023-12-29T01:33:44;2.40;;;2.27;;
6215;SDS011;3141;49.234;9.326;2023-12-29T01:34:26;2.10;;;1.90;;
6215;SDS011;3141;49.234;9.326;2023-12-29T01:35:14;2.35;;;2.17;;
6215;SDS011;3141;49.234;9.326;2023-12-29T01:35:56;2.03;;;1.93;;
6215;SDS011;3141;49.234;9.326;2023-12-29T01:36:39;2.20;;;2.00;;
6215;SDS011;3141;49.234;9.326;2023-12-29T01:37:21;2.43;;;2.23;;
6215;SDS011;3141;49.234;9.326;2023-12-29T01:38:04;3.90;;;2.40;;
6215;SDS011;3141;49.234;9.326;2023-12-29T01:38:46;3.20;;;2.60;;
6215;SDS011;3141;49.234;9.326;2023-12-29T01:39:29;2.37;;;2.17;;
6215;SDS011;3141;49.234;9.326;2023-12-29T01:40:12;2.55;;;2.35;;
6215;SDS011;3141;49.234;9.326;2023-12-29T01:40:54;2.60;;;1.83;;
6215;SDS011;3141;49.234;9.326;2023-12-29T01:41:36;5.10;;;2.40;;
6215;SDS011;3141;49.234;9.326;2023-12-29T01:42:19;2.67;;;2.20;;
6215;SDS011;3141;49.234;9.326;2023-12-29T01:43:01;2.70;;;2.27;;
6215;SDS011;3141;49.234;9.326;2023-12-29T01:44:41;2.08;;;1.95;;
6215;SDS011;3141;49.234;9.326;2023-12-29T01:45:24;4.63;;;2.20;;
6215;SDS011;3141;49.234;9.326;2023-12-29T01:46:08;2.95;;;2.10;;
6215;SDS011;3141;49.234;9.326;2023-12-29T01:46:50;2.20;;;2.10;;
6215;SDS011;3141;49.234;9.326;2023-12-29T01:47:36;3.58;;;2.53;;
6215;SDS011;3141;49.234;9.326;2023-12-29T01:48:18;2.20;;;2.10;;
6215;SDS011;3141;49.234;9.326;2023-12-29T01:49:01;2.30;;;2.07;;
6215;SDS011;3141;49.234;9.326;2023-12-29T01:49:44;2.43;;;2.20;;
6215;SDS011;3141;49.234;9.326;2023-12-29T01:50:27;2.60;;;2.40;;
6215;SDS011;3141;49.234;9.326;2023-12-29T01:51:10;2.87;;;2.50;;
6215;SDS011;3141;49.234;9.326;2023-12-29T01:51:58;2.47;;;2.10;;
6215;SDS011;3141;49.234;9.326;2023-12-29T01:52:42;2.67;;;2.45;;
6215;SDS011;3141;49.234;9.326;2023-12-29T01:53:27;2.78;;;2.50;;
6215;SDS011;3141;49.234;9.326;2023-12-29T01:54:09;3.00;;;2.40;;
6215;SDS011;3141;49.234;9.326;2023-12-29T01:54:53;2.65;;;2.45;;
6215;SDS011;3141;49.234;9.326;2023-12-29T01:55:36;2.50;;;2.30;;
6215;SDS011;3141;49.234;9.326;2023-12-29T01:56:19;2.23;;;2.07;;
6215;SDS011;3141;49.234;9.326;2023-12-29T01:57:03;2.88;;;2.58;;
6215;SDS011;3141;49.234;9.326;2023-12-29T01:57:45;2.53;;;2.33;;
6215;SDS011;3141;49.234;9.326;2023-12-29T01:58:29;2.40;;;2.28;;
6215;SDS011;3141;49.234;9.326;2023-12-29T01:59:12;4.88;;;2.75;;
6215;SDS011;3141;49.234;9.326;2023-12-29T01:59:54;2.57;;;2.37;;
6215;SDS011;3141;49.234;9.326;2023-12-29T02:00:37;2.60;;;2.40;;
6215;SDS011;3141;49.234;9.326;2023-12-29T02:01:19;2.50;;;2.30;;
6215;SDS011;3141;49.234;9.326;2023-12-29T02:02:02;2.53;;;2.10;;
6215;SDS011;3141;49.234;9.326;2023-12-29T02:02:46;3.87;;;2.50;;
6215;SDS011;3141;49.234;9.326;2023-12-29T02:03:29;3.10;;;2.83;;
6215;SDS011;3141;49.234;9.326;2023-12-29T02:04:12;2.47;;;2.27;;
6215;SDS011;3141;49.234;9.326;2023-12-29T02:04:55;3.53;;;2.67;;
6215;SDS011;3141;49.234;9.326;2023-12-29T02:05:38;2.90;;;2.53;;
6215;SDS011;3141;49.234;9.326;2023-12-29T02:06:21;3.28;;;2.83;;
6215;SDS011;3141;49.234;9.326;2023-12-29T02:07:03;4.00;;;2.77;;
6215;SDS011;3141;49.234;9.326;2023-12-29T02:07:46;5.20;;;2.50;;
6215;SDS011;3141;49.234;9.326;2023-12-29T02:08:29;3.20;;;2.90;;
6215;SDS011;3141;49.234;9.326;2023-12-29T02:09:12;4.03;;;2.90;;
6215;SDS011;3141;49.234;9.326;2023-12-29T02:09:54;3.63;;;2.60;;
6215;SDS011;3141;49.234;9.326;2023-12-29T02:10:37;2.67;;;2.47;;
6215;SDS011;3141;49.234;9.326;2023-12-29T02:11:19;2.60;;;2.33;;
6215;SDS011;3141;49.234;9.326;2023-12-29T02:12:02;3.37;;;2.70;;
6215;SDS011;3141;49.234;9.326;2023-12-29T02:12:45;2.87;;;2.67;;
6215;SDS011;3141;49.234;9.326;2023-12-29T02:13:31;2.65;;;2.33;;
6215;SDS011;3141;49.234;9.326;2023-12-29T02:14:16;4.20;;;2.60;;
6215;SDS011;3141;49.234;9.326;2023-12-29T02:15:00;2.47;;;2.30;;
6215;SDS011;3141;49.234;9.326;2023-12-29T02:15:43;2.73;;;2.53;;
6215;SDS011;3141;49.234;9.326;2023-12-29T02:17:29;2.47;;;2.28;;
6215;SDS011;3141;49.234;9.326;2023-12-29T02:18:17;4.60;;;2.90;;
6215;SDS011;3141;49.234;9.326;2023-12-29T02:19:04;3.47;;;2.42;;
6215;SDS011;3141;49.234;9.326;2023-12-29T02:19:55;3.72;;;2.70;;
6215;SDS011;3141;49.234;9.326;2023-12-29T02:20:38;2.73;;;2.50;;
6215;SDS011;3141;49.234;9.326;2023-12-29T02:21:26;3.63;;;2.40;;
6215;SDS011;3141;49.234;9.326;2023-12-29T02:22:08;3.03;;;2.72;;
6215;SDS011;3141;49.234;9.326;2023-12-29T02:22:51;2.67;;;2.47;;
6215;SDS011;3141;49.234;9.326;2023-12-29T02:23:34;2.30;;;2.10;;
6215;SDS011;3141;49.234;9.326;2023-12-29T02:24:16;2.73;;;2.53;;
6215;SDS011;3141;49.234;9.326;2023-12-29T02:24:58;2.83;;;2.63;;
6215;SDS011;3141;49.234;9.326;2023-12-29T02:25:41;2.87;;;2.67;;
6215;SDS011;3141;49.234;9.326;2023-12-29T02:26:23;3.17;;;2.50;;
6215;SDS011;3141;49.234;9.326;2023-12-29T02:27:25;2.97;;;2.70;;
6215;SDS011;3141;49.234;9.326;2023-12-29T02:29:02;3.08;;;2.78;;
6215;SDS011;3141;49.234;9.326;2023-12-29T02:29:50;4.65;;;2.75;;
6215;SDS011;3141;49.234;9.326;2023-12-29T02:31:16;5.25;;;2.97;;
6215;SDS011;3141;49.234;9.326;2023-12-29T02:32:01;2.53;;;2.33;;
6215;SDS011;3141;49.234;9.326;2023-12-29T02:32:47;3.03;;;2.83;;
6215;SDS011;3141;49.234;9.326;2023-12-29T02:33:31;4.03;;;2.58;;
6215;SDS011;3141;49.234;9.326;2023-12-29T02:34:19;4.82;;;3.13;;
6215;SDS011;3141;49.234;9.326;2023-12-29T02:35:04;3.42;;;2.33;;
6215;SDS011;3141;49.234;9.326;2023-12-29T02:35:50;2.92;;;2.60;;
6215;SDS011;3141;49.234;9.326;2023-12-29T02:36:34;2.20;;;2.10;;
6215;SDS011;3141;49.234;9.326;2023-12-29T02:37:24;4.45;;;2.38;;
6215;SDS011;3141;49.234;9.326;2023-12-29T02:38:08;3.20;;;2.25;;
6215;SDS011;3141;49.234;9.326;2023-12-29T02:38:51;4.97;;;3.10;;
6215;SDS011;3141;49.234;9.326;2023-12-29T02:39:33;2.73;;;2.53;;
6215;SDS011;3141;49.234;9.326;2023-12-29T02:40:16;2.90;;;2.60;;
6215;SDS011;3141;49.234;9.326;2023-12-29T02:40:59;3.37;;;2.43;;
6215;SDS011;3141;49.234;9.326;2023-12-29T02:41:41;3.47;;;2.20;;
6215;SDS011;3141;49.234;9.326;2023-12-29T02:42:24;4.60;;;2.87;;
6215;SDS011;3141;49.234;9.326;2023-12-29T02:43:07;4.13;;;2.60;;
6215;SDS011;3141;49.234;9.326;2023-12-29T02:43:50;4.70;;;2.88;;
6215;SDS011;3141;49.234;9.326;2023-12-29T02:44:32;2.77;;;2.57;;
6215;SDS011;3141;49.234;9.326;2023-12-29T02:45:15;3.13;;;2.80;;
6215;SDS011;3141;49.234;9.326;2023-12-29T02:45:59;3.30;;;2.63;;
6215;SDS011;3141;49.234;9.326;2023-12-29T02:46:41;3.37;;;3.07;;
6215;SDS011;3141;49.234;9.326;2023-12-29T02:47:23;2.80;;;2.60;;
6215;SDS011;3141;49.234;9.326;2023-12-29T02:48:06;2.90;;;2.70;;
6215;SDS011;3141;49.234;9.326;2023-12-29T02:48:48;4.27;;;2.63;;
6215;SDS011;3141;49.234;9.326;2023-12-29T02:49:31;3.00;;;2.80;;
6215;SDS011;3141;49.234;9.326;2023-12-29T02:50:13;2.90;;;2.70;;
6215;SDS011;3141;49.234;9.326;2023-12-29T02:50:56;3.33;;;2.47;;
6215;SDS011;3141;49.234;9.326;2023-12-29T02:51:39;2.90;;;2.60;;
6215;SDS011;3141;49.234;9.326;2023-12-29T02:52:22;2.67;;;2.47;;
6215;SDS011;3141;49.234;9.326;2023-12-29T02:53:04;2.67;;;2.47;;
6215;SDS011;3141;49.234;9.326;2023-12-29T02:53:47;2.40;;;2.20;;
6215;SDS011;3141;49.234;9.326;2023-12-29T02:54:30;3.00;;;2.80;;
6215;SDS011;3141;49.234;9.326;2023-12-29T02:55:13;3.77;;;2.67;;
6215;SDS011;3141;49.234;9.326;2023-12-29T02:55:55;5.27;;;2.77;;
6215;SDS011;3141;49.234;9.326;2023-12-29T02:56:37;6.17;;;2.30;;
6215;SDS011;3141;49.234;9.326;2023-12-29T02:57:20;2.80;;;2.60;;
6215;SDS011;3141;49.234;9.326;2023-12-29T02:58:02;2.63;;;2.30;;
6215;SDS011;3141;49.234;9.326;2023-12-29T02:58:45;2.70;;;2.50;;
6215;SDS011;3141;49.234;9.326;2023-12-29T02:59:28;2.85;;;2.65;;
6215;SDS011;3141;49.234;9.326;2023-12-29T03:00:10;2.93;;;2.37;;
6215;SDS011;3141;49.234;9.326;2023-12-29T03:00:53;3.07;;;2.83;;
6215;SDS011;3141;49.234;9.326;2023-12-29T03:01:35;4.03;;;3.03;;
6215;SDS011;3141;49.234;9.326;2023-12-29T03:02:18;3.97;;;2.63;;
6215;SDS011;3141;49.234;9.326;2023-12-29T03:03:01;3.95;;;2.80;;
6215;SDS011;3141;49.234;9.326;2023-12-29T03:03:43;4.20;;;2.30;;
6215;SDS011;3141;49.234;9.326;2023-12-29T03:04:26;2.40;;;2.20;;
6215;SDS011;3141;49.234;9.326;2023-12-29T03:05:08;5.40;;;3.23;;
6215;SDS011;3141;49.234;9.326;2023-12-29T03:05:50;2.43;;;2.23;;
6215;SDS011;3141;49.234;9.326;2023-12-29T03:06:33;3.47;;;2.87;;
6215;SDS011;3141;49.234;9.326;2023-12-29T03:07:15;2.80;;;2.60;;
6215;SDS011;3141;49.234;9.326;2023-12-29T03:07:58;3.07;;;2.77;;
6215;SDS011;3141;49.234;9.326;2023-12-29T03:08:40;3.10;;;2.50;;
6215;SDS011;3141;49.234;9.326;2023-12-29T03:09:23;4.07;;;2.33;;
6215;SDS011;3141;49.234;9.326;2023-12-29T03:10:05;2.80;;;2.60;;
6215;SDS011;3141;49.234;9.326;2023-12-29T03:10:48;4.72;;;2.60;;
6215;SDS011;3141;49.234;9.326;2023-12-29T03:11:31;2.57;;;2.27;;
6215;SDS011;3141;49.234;9.326;2023-12-29T03:12:14;2.53;;;2.33;;
6215;SDS011;3141;49.234;9.326;2023-12-29T03:12:56;4.20;;;2.27;;
6215;SDS011;3141;49.234;9.326;2023-12-29T03:13:38;2.37;;;2.17;;
6215;SDS011;3141;49.234;9.326;2023-12-29T03:14:21;3.67;;;2.40;;
6215;SDS011;3141;49.234;9.326;2023-12-29T03:15:03;3.37;;;2.67;;
6215;SDS011;3141;49.234;9.326;2023-12-29T03:15:45;2.33;;;2.23;;
6215;SDS011;3141;49.234;9.326;2023-12-29T03:16:28;2.80;;;2.50;;
6215;SDS011;3141;49.234;9.326;2023-12-29T03:17:11;2.77;;;2.50;;
6215;SDS011;3141;49.234;9.326;2023-12-29T03:17:53;4.03;;;2.53;;
6215;SDS011;3141;49.234;9.326;2023-12-29T03:18:36;3.23;;;2.30;;
6215;SDS011;3141;49.234;9.326;2023-12-29T03:19:21;2.38;;;2.17;;
6215;SDS011;3141;49.234;9.326;2023-12-29T03:20:04;3.77;;;2.10;;
6215;SDS011;3141;49.234;9.326;2023-12-29T03:20:47;2.60;;;2.40;;
6215;SDS011;3141;49.234;9.326;2023-12-29T03:21:30;2.40;;;2.20;;
6215;SDS011;3141;49.234;9.326;2023-12-29T03:22:12;3.17;;;2.00;;
6215;SDS011;3141;49.234;9.326;2023-12-29T03:22:54;2.47;;;2.27;;
6215;SDS011;3141;49.234;9.326;2023-12-29T03:23:37;2.47;;;2.27;;
6215;SDS011;3141;49.234;9.326;2023-12-29T03:24:19;2.43;;;2.23;;
6215;SDS011;3141;49.234;9.326;2023-12-29T03:25:02;2.40;;;2.17;;
6215;SDS011;3141;49.234;9.326;2023-12-29T03:25:44;2.57;;;2.30;;
6215;SDS011;3141;49.234;9.326;2023-12-29T03:26:27;2.40;;;2.20;;
6215;SDS011;3141;49.234;9.326;2023-12-29T03:27:09;2.37;;;2.27;;
6215;SDS011;3141;49.234;9.326;2023-12-29T03:27:52;2.40;;;2.20;;
6215;SDS011;3141;49.234;9.326;2023-12-29T03:28:34;3.80;;;2.30;;
6215;SDS011;3141;49.234;9.326;2023-12-29T03:29:17;6.87;;;2.27;;
6215;SDS011;3141;49.234;9.326;2023-12-29T03:29:59;2.13;;;1.93;;
6215;SDS011;3141;49.234;9.326;2023-12-29T03:30:41;2.17;;;2.07;;
6215;SDS011;3141;49.234;9.326;2023-12-29T03:31:24;2.47;;;2.27;;
6215;SDS011;3141;49.234;9.326;2023-12-29T03:32:06;2.37;;;2.17;;
6215;SDS011;3141;49.234;9.326;2023-12-29T03:32:49;2.73;;;2.37;;
6215;SDS011;3141;49.234;9.326;2023-12-29T03:33:31;1.97;;;1.87;;
6215;SDS011;3141;49.234;9.326;2023-12-29T03:34:13;2.60;;;2.40;;
6215;SDS011;3141;49.234;9.326;2023-12-29T03:34:56;3.37;;;2.30;;
6215;SDS011;3141;49.234;9.326;2023-12-29T03:35:38;2.63;;;2.40;;
6215;SDS011;3141;49.234;9.326;2023-12-29T03:36:20;2.63;;;2.43;;
6215;SDS011;3141;49.234;9.326;2023-12-29T03:37:03;3.07;;;2.17;;
6215;SDS011;3141;49.234;9.326;2023-12-29T03:37:45;3.77;;;2.53;;
6215;SDS011;3141;49.234;9.326;2023-12-29T03:38:28;2.97;;;1.97;;
6215;SDS011;3141;49.234;9.326;2023-12-29T03:39:10;3.27;;;2.47;;
6215;SDS011;3141;49.234;9.326;2023-12-29T03:39:52;2.33;;;2.13;;
6215;SDS011;3141;49.234;9.326;2023-12-29T03:40:35;4.83;;;2.87;;
6215;SDS011;3141;49.234;9.326;2023-12-29T03:41:17;3.97;;;2.33;;
6215;SDS011;3141;49.234;9.326;2023-12-29T03:42:01;3.45;;;3.05;;
6215;SDS011;3141;49.234;9.326;2023-12-29T03:42:44;2.80;;;2.42;;
6215;SDS011;3141;49.234;9.326;2023-12-29T03:43:26;2.70;;;2.50;;
6215;SDS011;3141;49.234;9.326;2023-12-29T03:44:08;2.63;;;2.43;;
6215;SDS011;3141;49.234;9.326;2023-12-29T03:44:51;2.83;;;2.50;;
6215;SDS011;3141;49.234;9.326;2023-12-29T03:45:33;3.20;;;2.60;;
6215;SDS011;3141;49.234;9.326;2023-12-29T03:46:21;2.50;;;2.07;;
6215;SDS011;3141;49.234;9.326;2023-12-29T03:47:04;2.85;;;2.50;;
6215;SDS011;3141;49.234;9.326;2023-12-29T03:47:47;2.27;;;2.17;;
6215;SDS011;3141;49.234;9.326;2023-12-29T03:48:29;2.80;;;2.60;;
6215;SDS011;3141;49.234;9.326;2023-12-29T03:49:11;2.60;;;2.40;;
6215;SDS011;3141;49.234;9.326;2023-12-29T03:49:54;2.77;;;2.07;;
6215;SDS011;3141;49.234;9.326;2023-12-29T03:50:36;2.70;;;2.50;;
6215;SDS011;3141;49.234;9.326;2023-12-29T03:51:19;2.83;;;2.50;;
6215;SDS011;3141;49.234;9.326;2023-12-29T03:52:02;2.55;;;2.35;;
6215;SDS011;3141;49.234;9.326;2023-12-29T03:52:45;3.40;;;2.10;;
6215;SDS011;3141;49.234;9.326;2023-12-29T03:53:27;3.43;;;1.97;;
6215;SDS011;3141;49.234;9.326;2023-12-29T03:54:09;2.27;;;1.60;;
6215;SDS011;3141;49.234;9.326;2023-12-29T03:54:52;2.73;;;2.53;;
6215;SDS011;3141;49.234;9.326;2023-12-29T03:55:34;2.27;;;2.10;;
6215;SDS011;3141;49.234;9.326;2023-12-29T03:56:17;2.33;;;2.10;;
6215;SDS011;3141;49.234;9.326;2023-12-29T03:57:00;2.67;;;2.47;;
6215;SDS011;3141;49.234;9.326;2023-12-29T03:57:43;2.00;;;1.90;;
6215;SDS011;3141;49.234;9.326;2023-12-29T03:58:25;2.50;;;2.30;;
6215;SDS011;3141;49.234;9.326;2023-12-29T03:59:07;2.40;;;2.20;;
6215;SDS011;3141;49.234;9.326;2023-12-29T03:59:50;2.67;;;2.00;;
6215;SDS011;3141;49.234;9.326;2023-12-29T04:00:32;3.17;;;2.23;;
6215;SDS011;3141;49.234;9.326;2023-12-29T04:01:15;2.77;;;2.13;;
6215;SDS011;3141;49.234;9.326;2023-12-29T04:01:58;2.33;;;2.13;;
6215;SDS011;3141;49.234;9.326;2023-12-29T04:02:41;3.10;;;2.33;;
6215;SDS011;3141;49.234;9.326;2023-12-29T04:03:23;2.50;;;2.30;;
6215;SDS011;3141;49.234;9.326;2023-12-29T04:04:05;3.03;;;2.43;;
6215;SDS011;3141;49.234;9.326;2023-12-29T04:04:47;3.80;;;2.27;;
6215;SDS011;3141;49.234;9.326;2023-12-29T04:05:30;3.33;;;2.30;;
6215;SDS011;3141;49.234;9.326;2023-12-29T04:06:12;2.53;;;2.10;;
6215;SDS011;3141;49.234;9.326;2023-12-29T04:06:55;3.50;;;2.13;;
6215;SDS011;3141;49.234;9.326;2023-12-29T04:07:40;2.30;;;2.10;;
6215;SDS011;3141;49.234;9.326;2023-12-29T04:08:22;5.00;;;2.60;;
6215;SDS011;3141;49.234;9.326;2023-12-29T04:09:05;4.03;;;2.17;;
6215;SDS011;3141;49.234;9.326;2023-12-29T04:09:47;2.60;;;2.40;;
6215;SDS011;3141;49.234;9.326;2023-12-29T04:10:29;2.50;;;2.17;;
6215;SDS011;3141;49.234;9.326;2023-12-29T04:11:12;2.80;;;2.60;;
6215;SDS011;3141;49.234;9.326;2023-12-29T04:11:54;2.37;;;2.07;;
6215;SDS011;3141;49.234;9.326;2023-12-29T04:12:36;2.50;;;2.17;;
6215;SDS011;3141;49.234;9.326;2023-12-29T04:13:19;2.60;;;2.40;;
6215;SDS011;3141;49.234;9.326;2023-12-29T04:14:01;3.47;;;2.60;;
6215;SDS011;3141;49.234;9.326;2023-12-29T04:14:43;2.77;;;2.50;;
6215;SDS011;3141;49.234;9.326;2023-12-29T04:15:26;3.50;;;2.77;;
6215;SDS011;3141;49.234;9.326;2023-12-29T04:16:08;4.50;;;2.50;;
6215;SDS011;3141;49.234;9.326;2023-12-29T04:16:50;5.20;;;2.30;;
6215;SDS011;3141;49.234;9.326;2023-12-29T04:17:33;2.63;;;2.40;;
6215;SDS011;3141;49.234;9.326;2023-12-29T04:18:15;4.73;;;2.47;;
6215;SDS011;3141;49.234;9.326;2023-12-29T04:18:57;4.07;;;2.53;;
6215;SDS011;3141;49.234;9.326;2023-12-29T04:19:40;3.70;;;2.47;;
6215;SDS011;3141;49.234;9.326;2023-12-29T04:20:23;2.55;;;2.35;;
6215;SDS011;3141;49.234;9.326;2023-12-29T04:21:06;3.17;;;2.50;;
6215;SDS011;3141;49.234;9.326;2023-12-29T04:21:51;3.42;;;2.30;;
6215;SDS011;3141;49.234;9.326;2023-12-29T04:22:34;3.08;;;2.47;;
6215;SDS011;3141;49.234;9.326;2023-12-29T04:23:16;2.40;;;2.20;;
6215;SDS011;3141;49.234;9.326;2023-12-29T04:23:58;3.90;;;2.50;;
6215;SDS011;3141;49.234;9.326;2023-12-29T04:24:40;2.60;;;2.40;;
6215;SDS011;3141;49.234;9.326;2023-12-29T04:25:23;2.80;;;2.50;;
6215;SDS011;3141;49.234;9.326;2023-12-29T04:26:05;2.40;;;2.20;;
6215;SDS011;3141;49.234;9.326;2023-12-29T04:26:47;4.90;;;2.50;;
6215;SDS011;3141;49.234;9.326;2023-12-29T04:27:30;2.60;;;2.40;;
6215;SDS011;3141;49.234;9.326;2023-12-29T04:28:12;3.27;;;2.60;;
6215;SDS011;3141;49.234;9.326;2023-12-29T04:28:54;3.60;;;2.67;;
6215;SDS011;3141;49.234;9.326;2023-12-29T04:29:37;2.63;;;2.43;;